createdAt,value
2022-12-15T00:02:17.024Z,61.60
2022-12-15T00:05:02.379Z,52.67
2022-12-15T00:07:49.813Z,58.00
2022-12-15T00:10:37.495Z,58.00
2022-12-15T00:13:29.020Z,59.13
2022-12-15T00:16:14.614Z,55.10
2022-12-15T00:18:59.853Z,59.77
2022-12-15T00:21:45.148Z,61.37
2022-12-15T00:24:32.635Z,57.83
2022-12-15T00:27:17.721Z,56.00
2022-12-15T00:30:03.261Z,58.90
2022-12-15T00:32:48.479Z,57.67
2022-12-15T00:35:33.766Z,56.17
2022-12-15T00:38:28.347Z,56.87
2022-12-15T00:40:59.648Z,52.83
2022-12-15T00:43:33.032Z,62.30
2022-12-15T00:46:19.215Z,53.90
2022-12-15T00:48:46.126Z,54.87
2022-12-15T00:51:15.634Z,54.77
2022-12-15T00:54:01.034Z,60.67
2022-12-15T00:56:46.466Z,60.63
2022-12-15T00:59:34.528Z,54.80
2022-12-15T01:02:20.259Z,60.87
2022-12-15T01:05:06.100Z,55.13
2022-12-15T01:07:51.570Z,54.73
2022-12-15T01:10:37.916Z,56.83
2022-12-15T01:13:23.541Z,55.27
2022-12-15T01:16:09.124Z,57.50
2022-12-15T01:18:54.449Z,52.10
2022-12-15T01:21:24.572Z,56.50
2022-12-15T01:23:54.175Z,53.13
2022-12-15T01:26:20.925Z,59.33
2022-12-15T01:28:47.708Z,52.80
2022-12-15T01:31:14.617Z,52.27
2022-12-15T01:33:43.659Z,51.03
2022-12-15T01:36:10.757Z,57.90
2022-12-15T01:38:37.686Z,52.87
2022-12-15T01:41:10.139Z,49.10
2022-12-15T01:43:38.181Z,49.87
2022-12-15T01:46:10.140Z,57.63
2022-12-15T01:48:53.978Z,54.67
2022-12-15T01:51:33.637Z,51.97
2022-12-15T01:54:12.527Z,49.13
2022-12-15T01:56:45.391Z,53.63
2022-12-15T01:59:19.597Z,51.77
2022-12-15T02:01:49.779Z,53.47
2022-12-15T02:04:20.789Z,51.63
2022-12-15T02:06:47.573Z,48.60
2022-12-15T02:09:14.391Z,48.60
2022-12-15T02:12:14.760Z,48.43
2022-12-15T02:15:22.825Z,54.93
2022-12-15T02:18:19.903Z,46.07
2022-12-15T02:20:51.429Z,47.87
2022-12-15T02:23:37.160Z,51.33
2022-12-15T02:26:22.371Z,60.50
2022-12-15T02:29:29.359Z,50.27
2022-12-15T02:32:00.110Z,52.67
2022-12-15T02:34:28.261Z,54.73
2022-12-15T02:36:59.840Z,52.30
2022-12-15T02:39:26.597Z,50.93
2022-12-15T02:41:55.573Z,56.53
2022-12-15T02:44:26.893Z,56.10
2022-12-15T02:47:09.989Z,48.23
2022-12-15T02:49:46.438Z,51.90
2022-12-15T02:52:40.104Z,47.17
2022-12-15T02:55:27.949Z,50.70
2022-12-15T02:58:13.259Z,47.00
2022-12-15T03:00:43.127Z,52.17
2022-12-15T03:03:09.957Z,50.43
2022-12-15T03:05:36.741Z,49.90
2022-12-15T03:08:05.735Z,53.23
2022-12-15T03:10:34.594Z,53.23
2022-12-15T03:13:01.321Z,51.47
2022-12-15T03:15:31.819Z,51.73
2022-12-15T03:18:04.480Z,50.33
2022-12-15T03:20:33.402Z,54.13
2022-12-15T03:23:03.157Z,50.10
2022-12-15T03:25:32.409Z,50.80
2022-12-15T03:27:59.241Z,49.40
2022-12-15T03:30:25.964Z,53.60
2022-12-15T03:32:52.688Z,48.93
2022-12-15T03:35:19.423Z,53.70
2022-12-15T03:37:46.201Z,52.57
2022-12-15T03:40:16.498Z,53.03
2022-12-15T03:42:53.145Z,52.20
2022-12-15T03:45:21.640Z,52.17
2022-12-15T03:47:48.574Z,51.23
2022-12-15T03:50:16.775Z,57.43
2022-12-15T03:52:43.538Z,54.97
2022-12-15T03:55:12.938Z,57.73
2022-12-15T03:57:39.690Z,56.93
2022-12-15T04:00:09.382Z,55.43
2022-12-15T04:02:38.487Z,61.40
2022-12-15T04:05:05.638Z,58.63
2022-12-15T04:07:32.362Z,51.23
2022-12-15T04:09:59.395Z,58.33
2022-12-15T04:12:28.616Z,56.37
2022-12-15T04:14:55.385Z,59.60
2022-12-15T04:17:22.124Z,58.60
2022-12-15T04:20:07.286Z,59.60
2022-12-15T04:22:34.029Z,57.53
2022-12-15T04:25:19.217Z,62.30
2022-12-15T04:28:04.743Z,61.10
2022-12-15T04:30:49.742Z,59.47
2022-12-15T04:33:35.888Z,61.23
2022-12-15T04:36:21.684Z,59.10
2022-12-15T04:39:06.900Z,62.17
2022-12-15T04:41:54.640Z,63.80
2022-12-15T04:44:39.822Z,58.17
2022-12-15T04:47:25.024Z,58.90
2022-12-15T04:50:10.344Z,58.33
2022-12-15T04:52:55.552Z,59.67
2022-12-15T04:55:40.993Z,63.47
2022-12-15T04:58:27.011Z,57.60
2022-12-15T05:01:12.561Z,60.87
2022-12-15T05:03:58.412Z,56.97
2022-12-15T05:06:43.665Z,62.30
2022-12-15T05:09:29.015Z,59.07
2022-12-15T05:12:14.213Z,61.30
2022-12-15T05:15:01.813Z,58.10
2022-12-15T05:17:48.403Z,57.17
2022-12-15T05:20:34.034Z,62.30
2022-12-15T05:23:19.448Z,64.20
2022-12-15T05:26:04.887Z,67.27
2022-12-15T05:28:52.485Z,63.40
2022-12-15T05:31:38.196Z,66.07
2022-12-15T05:34:07.099Z,69.17
2022-12-15T05:36:33.797Z,65.83
2022-12-15T05:39:00.546Z,59.50
2022-12-15T05:41:32.204Z,62.70
2022-12-15T05:43:58.970Z,65.50
2022-12-15T05:46:25.956Z,70.93
2022-12-15T05:48:52.780Z,65.47
2022-12-15T05:51:19.533Z,66.90
2022-12-15T05:53:46.274Z,68.43
2022-12-15T05:56:14.337Z,74.40
2022-12-15T05:58:45.484Z,71.67
2022-12-15T06:01:17.008Z,74.77
2022-12-15T06:03:43.859Z,70.60
2022-12-15T06:06:13.183Z,70.70
2022-12-15T06:08:43.294Z,71.77
2022-12-15T06:11:16.789Z,71.67
2022-12-15T06:13:46.715Z,72.83
2022-12-15T06:16:15.465Z,72.80
2022-12-15T06:18:44.171Z,74.97
2022-12-15T06:21:18.705Z,72.57
2022-12-15T06:23:51.030Z,80.03
2022-12-15T06:26:19.530Z,73.20
2022-12-15T06:28:46.675Z,74.73
2022-12-15T06:31:16.400Z,73.90
2022-12-15T06:33:45.360Z,78.17
2022-12-15T06:36:13.509Z,77.63
2022-12-15T06:38:43.677Z,82.00
2022-12-15T06:41:17.178Z,74.97
2022-12-15T06:43:51.827Z,77.73
2022-12-15T06:46:18.735Z,76.70
2022-12-15T06:48:48.021Z,81.60
2022-12-15T06:51:17.028Z,74.40
2022-12-15T06:53:50.930Z,78.33
2022-12-15T06:56:36.260Z,77.83
2022-12-15T06:59:03.928Z,81.97
2022-12-15T07:01:31.026Z,82.50
2022-12-15T07:04:00.149Z,82.60
2022-12-15T07:06:36.404Z,85.53
2022-12-15T07:09:07.229Z,85.50
2022-12-15T07:11:36.466Z,85.30
2022-12-15T07:14:03.276Z,85.37
2022-12-15T07:16:30.506Z,85.63
2022-12-15T07:18:59.592Z,86.50
2022-12-15T07:21:26.411Z,87.07
2022-12-15T07:23:55.325Z,90.77
2022-12-15T07:26:23.687Z,89.60
2022-12-15T07:28:53.575Z,83.97
2022-12-15T07:31:23.358Z,91.87
2022-12-15T07:33:53.837Z,84.93
2022-12-15T07:36:20.754Z,83.40
2022-12-15T07:38:50.627Z,82.87
2022-12-15T07:41:18.294Z,84.13
2022-12-15T07:43:47.874Z,86.23
2022-12-15T07:46:15.139Z,78.63
2022-12-15T07:48:44.442Z,77.03
2022-12-15T07:51:19.835Z,80.17
2022-12-15T07:53:50.082Z,84.03
2022-12-15T07:56:19.753Z,80.93
2022-12-15T07:58:53.365Z,85.83
2022-12-15T08:01:20.227Z,84.60
2022-12-15T08:03:49.810Z,82.20
2022-12-15T08:06:16.747Z,86.23
2022-12-15T08:08:44.286Z,85.67
2022-12-15T08:11:16.232Z,77.47
2022-12-15T08:14:04.955Z,81.70
2022-12-15T08:16:36.567Z,83.80
2022-12-15T08:19:05.463Z,85.17
2022-12-15T08:21:33.212Z,82.07
2022-12-15T08:24:01.021Z,93.00
2022-12-15T08:26:30.607Z,87.33
2022-12-15T08:29:11.762Z,92.17
2022-12-15T08:31:44.915Z,83.23
2022-12-15T08:34:11.757Z,89.47
2022-12-15T08:36:38.588Z,98.50
2022-12-15T08:39:07.495Z,94.37
2022-12-15T08:41:34.213Z,106.43
2022-12-15T08:44:03.787Z,107.17
2022-12-15T08:46:32.170Z,96.70
2022-12-15T08:48:59.062Z,101.00
2022-12-15T08:51:28.097Z,94.27
2022-12-15T08:53:58.243Z,92.37
2022-12-15T08:56:25.349Z,92.57
2022-12-15T08:58:56.197Z,86.00
2022-12-15T09:01:24.312Z,89.63
2022-12-15T09:03:54.957Z,94.90
2022-12-15T09:06:26.949Z,82.63
2022-12-15T09:08:57.967Z,87.53
2022-12-15T09:11:25.346Z,83.07
2022-12-15T09:13:52.128Z,91.80
2022-12-15T09:16:21.485Z,87.07
2022-12-15T09:18:53.401Z,82.80
2022-12-15T09:21:23.910Z,78.93
2022-12-15T09:23:54.313Z,80.00
2022-12-15T09:26:22.288Z,80.67
2022-12-15T09:28:51.723Z,85.63
2022-12-15T09:31:23.272Z,88.20
2022-12-15T09:33:53.739Z,84.50
2022-12-15T09:36:21.249Z,93.93
2022-12-15T09:38:50.217Z,91.60
2022-12-15T09:41:25.365Z,96.63
2022-12-15T09:43:54.750Z,99.63
2022-12-15T09:46:36.833Z,89.53
2022-12-15T09:49:06.257Z,85.20
2022-12-15T09:51:36.514Z,84.47
2022-12-15T09:54:03.687Z,79.63
2022-12-15T09:56:50.279Z,74.37
2022-12-15T09:59:32.821Z,74.13
2022-12-15T10:02:14.683Z,79.27
2022-12-15T10:04:54.395Z,72.87
2022-12-15T10:07:26.518Z,74.13
2022-12-15T10:09:53.278Z,71.83
2022-12-15T10:12:31.990Z,72.03
2022-12-15T10:15:11.640Z,82.57
2022-12-15T10:17:43.630Z,75.07
2022-12-15T10:20:27.078Z,75.50
2022-12-15T10:23:01.585Z,74.83
2022-12-15T10:25:31.384Z,81.77
2022-12-15T10:28:30.313Z,77.93
2022-12-15T10:31:02.330Z,87.40
2022-12-15T10:33:35.095Z,83.87
2022-12-15T10:36:02.197Z,87.03
2022-12-15T10:38:37.866Z,89.10
2022-12-15T10:41:28.047Z,89.93
2022-12-15T10:43:57.238Z,89.90
2022-12-15T10:46:27.760Z,90.20
2022-12-15T10:49:21.409Z,85.03
2022-12-15T10:51:57.357Z,80.63
2022-12-15T10:54:24.697Z,87.43
2022-12-15T10:56:52.560Z,81.67
2022-12-15T10:59:25.492Z,95.17
2022-12-15T11:01:54.778Z,93.77
2022-12-15T11:04:31.759Z,95.57
2022-12-15T11:07:02.404Z,98.37
2022-12-15T11:09:34.519Z,92.33
2022-12-15T11:12:19.510Z,106.73
2022-12-15T11:14:52.392Z,116.90
2022-12-15T11:17:20.900Z,114.23
2022-12-15T11:20:03.722Z,118.30
2022-12-15T11:22:36.022Z,116.87
2022-12-15T11:25:21.273Z,121.03
2022-12-15T11:27:48.104Z,108.43
2022-12-15T11:30:22.404Z,113.30
2022-12-15T11:32:53.592Z,118.43
2022-12-15T11:35:37.801Z,113.20
2022-12-15T11:38:19.962Z,115.00
2022-12-15T11:40:52.028Z,111.73
2022-12-15T11:43:32.282Z,106.67
2022-12-15T11:46:21.364Z,113.03
2022-12-15T11:49:15.583Z,119.13
2022-12-15T11:51:54.454Z,110.47
2022-12-15T11:54:39.140Z,106.47
2022-12-15T11:57:39.823Z,108.53
2022-12-15T12:00:09.642Z,116.17
2022-12-15T12:02:44.449Z,122.80
2022-12-15T12:05:14.285Z,112.90
2022-12-15T12:07:49.612Z,119.87
2022-12-15T12:10:33.832Z,115.70
2022-12-15T12:13:28.644Z,111.67
2022-12-15T12:16:20.868Z,106.03
2022-12-15T12:19:02.821Z,112.93
2022-12-15T12:21:51.567Z,118.90
2022-12-15T12:24:24.794Z,120.33
2022-12-15T12:27:24.160Z,116.13
2022-12-15T12:29:59.340Z,117.57
2022-12-15T12:32:55.970Z,120.83
2022-12-15T12:35:57.180Z,125.10
2022-12-15T12:38:32.585Z,129.87
2022-12-15T12:41:15.169Z,137.50
2022-12-15T12:43:44.100Z,130.87
2022-12-15T12:46:29.031Z,124.23
2022-12-15T12:49:26.074Z,135.47
2022-12-15T12:51:54.611Z,140.13
2022-12-15T12:54:39.873Z,136.53
2022-12-15T12:57:12.911Z,142.67
2022-12-15T12:59:43.540Z,124.80
2022-12-15T13:02:24.722Z,139.83
2022-12-15T13:04:57.791Z,141.57
2022-12-15T13:07:40.980Z,136.03
2022-12-15T13:10:09.944Z,125.67
2022-12-15T13:12:53.724Z,126.50
2022-12-15T13:15:27.336Z,121.10
2022-12-15T13:18:16.851Z,131.90
2022-12-15T13:20:48.915Z,124.60
2022-12-15T13:23:23.466Z,131.87
2022-12-15T13:25:55.994Z,133.87
2022-12-15T13:28:38.310Z,120.17
2022-12-15T13:31:27.026Z,123.73
2022-12-15T13:33:59.494Z,121.73
2022-12-15T13:36:41.349Z,121.90
2022-12-15T13:39:18.382Z,122.57
2022-12-15T13:42:07.426Z,107.70
2022-12-15T13:44:51.644Z,105.90
2022-12-15T13:47:30.738Z,103.60
2022-12-15T13:50:16.031Z,112.00
2022-12-15T13:53:17.749Z,102.37
2022-12-15T13:55:39.356Z,107.33
2022-12-15T13:58:16.100Z,105.57
2022-12-15T14:00:58.085Z,96.27
2022-12-15T14:03:26.046Z,94.90
2022-12-15T14:05:58.867Z,104.50
2022-12-15T14:08:26.967Z,95.63
2022-12-15T14:10:55.131Z,91.87
2022-12-15T14:13:22.192Z,87.43
2022-12-15T14:15:56.568Z,97.33
2022-12-15T14:18:28.948Z,96.85
2022-12-15T14:20:55.996Z,88.07
2022-12-15T14:23:30.762Z,93.80
2022-12-15T14:26:09.136Z,83.47
2022-12-15T14:28:36.848Z,88.30
2022-12-15T14:31:22.118Z,88.87
2022-12-15T14:34:09.046Z,84.23
2022-12-15T14:36:35.823Z,94.43
2022-12-15T14:39:07.103Z,87.43
2022-12-15T14:41:38.430Z,91.87
2022-12-15T14:44:36.353Z,104.57
2022-12-15T14:46:58.581Z,105.50
2022-12-15T14:49:31.275Z,102.70
2022-12-15T14:52:02.324Z,87.47
2022-12-15T14:54:32.105Z,92.10
2022-12-15T14:57:20.496Z,89.40
2022-12-15T14:59:48.713Z,92.23
2022-12-15T15:02:41.996Z,96.83
2022-12-15T15:05:24.532Z,89.77
2022-12-15T15:07:55.532Z,87.83
2022-12-15T15:10:28.834Z,90.13
2022-12-15T15:12:55.613Z,83.87
2022-12-15T15:15:25.655Z,87.63
2022-12-15T15:17:53.436Z,84.77
2022-12-15T15:20:22.436Z,85.67
2022-12-15T15:23:07.232Z,92.17
2022-12-15T15:25:39.333Z,92.67
2022-12-15T15:28:19.003Z,95.50
2022-12-15T15:30:48.708Z,83.43
2022-12-15T15:33:18.160Z,85.60
2022-12-15T15:35:45.312Z,92.93
2022-12-15T15:38:26.993Z,88.67
2022-12-15T15:41:02.539Z,94.87
2022-12-15T15:43:29.445Z,100.00
2022-12-15T15:46:07.249Z,101.27
2022-12-15T15:48:41.042Z,94.17
2022-12-15T15:51:07.833Z,102.80
2022-12-15T15:53:34.707Z,101.70
2022-12-15T15:56:02.346Z,108.87
2022-12-15T15:58:29.430Z,106.53
2022-12-15T16:00:58.699Z,103.10
2022-12-15T16:03:28.278Z,103.10
2022-12-15T16:05:55.133Z,101.57
2022-12-15T16:08:29.229Z,97.07
2022-12-15T16:10:56.261Z,91.17
2022-12-15T16:13:26.313Z,98.27
2022-12-15T16:15:55.837Z,94.03
2022-12-15T16:18:25.106Z,102.10
2022-12-15T16:20:54.407Z,91.23
2022-12-15T16:23:26.574Z,86.20
2022-12-15T16:25:54.114Z,89.20
2022-12-15T16:28:22.694Z,100.77
2022-12-15T16:30:50.507Z,96.47
2022-12-15T16:33:17.413Z,97.33
2022-12-15T16:35:44.414Z,88.07
2022-12-15T16:38:25.564Z,87.77
2022-12-15T16:40:52.526Z,88.93
2022-12-15T16:43:21.163Z,91.90
2022-12-15T16:45:49.482Z,92.27
2022-12-15T16:48:21.324Z,94.57
2022-12-15T16:50:56.206Z,90.37
2022-12-15T16:53:25.062Z,89.20
2022-12-15T16:55:56.640Z,89.77
2022-12-15T16:58:23.494Z,91.43
2022-12-15T17:00:50.619Z,86.93
2022-12-15T17:03:23.216Z,88.83
2022-12-15T17:05:50.544Z,90.67
2022-12-15T17:08:23.698Z,94.23
2022-12-15T17:10:52.626Z,86.97
2022-12-15T17:13:35.667Z,93.43
2022-12-15T17:16:07.258Z,96.97
2022-12-15T17:18:36.596Z,86.10
2022-12-15T17:21:13.551Z,90.07
2022-12-15T17:23:40.414Z,87.37
2022-12-15T17:26:25.751Z,85.77
2022-12-15T17:28:58.103Z,81.70
2022-12-15T17:31:33.221Z,87.60
2022-12-15T17:34:02.679Z,95.00
2022-12-15T17:36:29.426Z,87.10
2022-12-15T17:38:59.621Z,92.10
2022-12-15T17:41:58.249Z,84.37
2022-12-15T17:44:39.288Z,86.27
2022-12-15T17:47:07.349Z,85.40
2022-12-15T17:49:37.473Z,83.83
2022-12-15T17:52:25.447Z,90.73
2022-12-15T17:54:52.209Z,93.70
2022-12-15T17:57:19.037Z,95.03
2022-12-15T17:59:45.777Z,87.43
2022-12-15T18:02:13.816Z,94.93
2022-12-15T18:04:45.924Z,95.53
2022-12-15T18:07:18.126Z,97.33
2022-12-15T18:09:47.696Z,98.80
2022-12-15T18:12:25.269Z,94.03
2022-12-15T18:14:52.232Z,94.80
2022-12-15T18:17:19.283Z,94.83
2022-12-15T18:19:48.164Z,98.97
2022-12-15T18:22:22.101Z,98.53
2022-12-15T18:24:52.088Z,93.83
2022-12-15T18:27:25.568Z,97.10
2022-12-15T18:29:52.450Z,97.80
2022-12-15T18:32:19.411Z,94.03
2022-12-15T18:34:50.810Z,92.17
2022-12-15T18:37:18.870Z,93.63
2022-12-15T18:39:45.753Z,96.23
2022-12-15T18:42:16.701Z,95.60
2022-12-15T18:44:53.335Z,86.27
2022-12-15T18:47:21.794Z,88.77
2022-12-15T18:49:48.685Z,87.33
2022-12-15T18:52:22.310Z,89.87
2022-12-15T18:54:51.837Z,93.37
2022-12-15T18:57:32.003Z,97.73
2022-12-15T19:00:07.972Z,77.67
2022-12-15T19:02:34.843Z,77.20
2022-12-15T19:05:03.941Z,83.57
2022-12-15T19:07:30.694Z,74.33
2022-12-15T19:10:00.477Z,78.80
2022-12-15T19:12:31.865Z,80.93
2022-12-15T19:14:59.158Z,80.60
2022-12-15T19:17:44.429Z,84.20
2022-12-15T19:20:37.004Z,81.17
2022-12-15T19:23:04.555Z,83.73
2022-12-15T19:25:33.783Z,83.90
2022-12-15T19:28:02.782Z,91.13
2022-12-15T19:30:41.802Z,83.33
2022-12-15T19:33:12.167Z,84.37
2022-12-15T19:35:41.760Z,80.37
2022-12-15T19:38:10.853Z,79.63
2022-12-15T19:40:37.843Z,71.07
2022-12-15T19:43:04.949Z,77.87
2022-12-15T19:45:32.301Z,76.03
2022-12-15T19:47:59.225Z,73.37
2022-12-15T19:50:29.002Z,74.47
2022-12-15T19:52:58.139Z,70.70
2022-12-15T19:55:30.037Z,72.63
2022-12-15T19:57:59.006Z,69.53
2022-12-15T20:00:28.093Z,78.50
2022-12-15T20:02:55.786Z,75.63
2022-12-15T20:05:25.713Z,70.50
2022-12-15T20:07:53.267Z,73.30
2022-12-15T20:10:29.534Z,76.17
2022-12-15T20:12:58.933Z,71.20
2022-12-15T20:15:26.394Z,67.63
2022-12-15T20:17:57.312Z,64.17
2022-12-15T20:20:26.137Z,73.30
2022-12-15T20:22:56.608Z,66.00
2022-12-15T20:25:27.952Z,68.93
2022-12-15T20:27:57.485Z,64.37
2022-12-15T20:30:26.568Z,63.47
2022-12-15T20:32:53.461Z,64.47
2022-12-15T20:35:21.302Z,61.57
2022-12-15T20:37:48.691Z,65.63
2022-12-15T20:40:28.731Z,63.77
2022-12-15T20:42:57.925Z,65.00
2022-12-15T20:45:25.760Z,60.37
2022-12-15T20:47:53.264Z,61.47
2022-12-15T20:50:41.012Z,60.30
2022-12-15T20:53:21.741Z,66.53
2022-12-15T20:55:49.207Z,61.37
2022-12-15T20:58:18.717Z,68.53
2022-12-15T21:00:49.034Z,62.83
2022-12-15T21:03:21.268Z,58.83
2022-12-15T21:05:48.520Z,64.67
2022-12-15T21:08:18.104Z,65.03
2022-12-15T21:10:45.365Z,63.33
2022-12-15T21:13:15.287Z,61.83
2022-12-15T21:15:42.068Z,67.17
2022-12-15T21:18:51.998Z,61.37
2022-12-15T21:21:01.395Z,64.40
2022-12-15T21:23:29.420Z,62.83
2022-12-15T21:25:56.941Z,61.63
2022-12-15T21:28:28.505Z,62.37
2022-12-15T21:30:58.461Z,68.47
2022-12-15T21:33:25.243Z,65.97
2022-12-15T21:35:51.969Z,66.37
2022-12-15T21:38:31.256Z,71.70
2022-12-15T21:40:59.877Z,68.30
2022-12-15T21:43:29.041Z,64.17
2022-12-15T21:45:55.860Z,64.07
2022-12-15T21:48:41.112Z,63.53
2022-12-15T21:51:16.291Z,69.37
2022-12-15T21:53:43.287Z,66.67
2022-12-15T21:56:19.941Z,67.07
2022-12-15T21:58:49.102Z,64.03
2022-12-15T22:01:17.160Z,74.50
2022-12-15T22:03:54.918Z,66.17
2022-12-15T22:06:26.666Z,70.73
2022-12-15T22:08:54.301Z,65.53
2022-12-15T22:11:26.137Z,69.63
2022-12-15T22:13:57.066Z,67.03
2022-12-15T22:16:26.129Z,73.13
2022-12-15T22:18:56.974Z,67.50
2022-12-15T22:21:24.325Z,66.70
2022-12-15T22:23:53.621Z,71.40
2022-12-15T22:26:27.437Z,67.87
2022-12-15T22:28:57.624Z,78.27
2022-12-15T22:31:24.443Z,71.87
2022-12-15T22:33:51.747Z,67.00
2022-12-15T22:36:18.492Z,73.87
2022-12-15T22:38:47.458Z,72.37
2022-12-15T22:41:23.024Z,79.80
2022-12-15T22:43:53.683Z,78.30
2022-12-15T22:46:22.554Z,78.30
2022-12-15T22:48:51.365Z,74.53
2022-12-15T22:51:18.538Z,75.53
2022-12-15T22:53:47.385Z,77.67
2022-12-15T22:56:40.360Z,77.73
2022-12-15T22:59:08.885Z,79.63
2022-12-15T23:01:35.680Z,72.40
2022-12-15T23:04:02.770Z,78.87
2022-12-15T23:06:30.030Z,78.07
2022-12-15T23:08:56.869Z,79.67
2022-12-15T23:11:39.037Z,75.37
2022-12-15T23:14:06.772Z,83.00
2022-12-15T23:16:36.291Z,79.63
2022-12-15T23:19:03.278Z,81.50
2022-12-15T23:21:32.880Z,82.97
2022-12-15T23:23:59.907Z,76.87
2022-12-15T23:26:29.313Z,81.53
2022-12-15T23:28:58.503Z,75.23
2022-12-15T23:31:27.518Z,86.50
2022-12-15T23:33:56.391Z,82.53
2022-12-15T23:36:23.159Z,84.37
2022-12-15T23:38:55.061Z,76.03
2022-12-15T23:41:21.966Z,85.20
2022-12-15T23:43:48.693Z,88.67
2022-12-15T23:46:18.840Z,74.60
2022-12-15T23:48:47.749Z,78.93
2022-12-15T23:51:16.432Z,87.17
2022-12-15T23:53:43.823Z,89.53
2022-12-15T23:56:21.332Z,82.17
2022-12-15T23:58:49.204Z,82.10
